Time;durP1;ratioP1;P1;durP2;ratioP2;P2;SDS_P1;SDS_P2;PMS_P1;PMS_P2;Temp;Humidity;BMP_temperature;BMP_pressure;BME280_temperature;BME280_humidity;BME280_pressure;Samples;Min_cycle;Max_cycle;Signal;HPM_P1;HPM_P2
2021/01/14 00:00:13;;;;;;;1999.90;999.90;;;3.80;99.90;;;;;;5070482;28;20171;-67
2021/01/14 00:02:39;;;;;;;1999.90;999.90;;;3.80;99.90;;;;;;5070530;28;20218;-66
2021/01/14 00:05:07;;;;;;;1999.90;999.90;;;3.70;99.90;;;;;;5070568;28;20238;-66
2021/01/14 00:07:33;;;;;;;1999.90;999.90;;;3.70;99.90;;;;;;5070544;28;20212;-66
2021/01/14 00:09:59;;;;;;;1999.90;999.90;;;3.80;99.90;;;;;;5070471;28;20628;-65
2021/01/14 00:12:24;;;;;;;1999.90;999.90;;;3.70;99.90;;;;;;5070535;28;20187;-66
2021/01/14 00:14:50;;;;;;;1999.90;999.90;;;3.70;99.90;;;;;;5070511;28;20171;-65
2021/01/14 00:17:16;;;;;;;1999.90;999.90;;;3.70;99.90;;;;;;5070509;28;20186;-65
2021/01/14 00:19:42;;;;;;;1999.90;999.90;;;3.70;99.90;;;;;;5070217;28;20171;-65
2021/01/14 00:22:07;;;;;;;1999.90;999.90;;;3.70;99.90;;;;;;5070322;28;20428;-65
2021/01/14 00:24:33;;;;;;;1999.90;999.90;;;3.70;99.90;;;;;;5070373;28;20191;-65
2021/01/14 00:26:58;;;;;;;1999.90;999.90;;;3.70;99.90;;;;;;5070347;28;20587;-66
2021/01/14 00:29:24;;;;;;;1999.90;999.90;;;3.70;99.90;;;;;;5070144;28;20713;-65
2021/01/14 00:31:50;;;;;;;1999.90;999.90;;;3.70;99.90;;;;;;5070324;28;20178;-66
2021/01/14 00:34:15;;;;;;;1999.90;999.90;;;3.60;99.90;;;;;;5070840;28;20250;-66
2021/01/14 00:39:28;;;;;;;1999.90;999.90;;;3.60;99.90;;;;;;5074075;28;20178;-65
2021/01/14 00:41:55;;;;;;;1999.90;999.90;;;3.60;99.90;;;;;;5073790;28;20202;-65
2021/01/14 00:44:20;;;;;;;1999.90;999.90;;;3.60;99.90;;;;;;5073917;28;20174;-65
2021/01/14 00:46:46;;;;;;;1999.90;999.90;;;3.60;99.90;;;;;;5073772;28;20171;-66
2021/01/14 00:49:12;;;;;;;1999.90;999.90;;;3.60;99.90;;;;;;5073510;28;20167;-65
2021/01/14 00:51:39;;;;;;;1999.90;999.90;;;3.60;99.90;;;;;;5073907;28;20194;-65
2021/01/14 00:54:05;;;;;;;1999.90;999.90;;;3.70;99.90;;;;;;5073737;28;20188;-65
2021/01/14 00:56:38;;;;;;;1999.90;999.90;;;3.70;99.90;;;;;;5073673;28;20656;-65
2021/01/14 00:59:07;;;;;;;1999.90;999.90;;;3.70;99.90;;;;;;5073309;28;20225;-65
2021/01/14 01:01:33;;;;;;;1999.90;999.90;;;3.70;99.90;;;;;;5073521;28;20198;-65
2021/01/14 01:03:59;;;;;;;1999.90;999.90;;;3.70;99.90;;;;;;5073543;28;20546;-66
2021/01/14 01:06:35;;;;;;;1999.90;999.90;;;3.70;99.90;;;;;;5073465;28;20187;-65
2021/01/14 01:09:03;;;;;;;1999.90;999.90;;;3.70;99.90;;;;;;5073296;28;20167;-65
2021/01/14 01:11:29;;;;;;;1999.90;999.90;;;3.70;99.90;;;;;;5073330;28;20268;-65
2021/01/14 01:13:55;;;;;;;1999.90;999.90;;;3.70;99.90;;;;;;5073401;28;20501;-65
2021/01/14 01:16:21;;;;;;;1999.90;999.90;;;3.70;99.90;;;;;;5073340;28;20174;-65
2021/01/14 01:18:46;;;;;;;1999.90;999.90;;;3.70;99.90;;;;;;5072951;28;20401;-66
2021/01/14 01:21:13;;;;;;;1999.90;999.90;;;3.70;99.90;;;;;;5073158;28;20421;-66
2021/01/14 01:23:38;;;;;;;1999.90;999.90;;;3.70;99.90;;;;;;5073232;28;20409;-66
2021/01/14 01:26:04;;;;;;;1999.90;999.90;;;3.70;99.90;;;;;;5073046;28;20276;-66
2021/01/14 01:28:30;;;;;;;1999.90;999.90;;;3.80;99.90;;;;;;5072877;28;20163;-65
2021/01/14 01:30:56;;;;;;;1999.90;999.90;;;3.80;99.90;;;;;;5073044;28;20282;-66
2021/01/14 01:33:26;;;;;;;1999.90;999.90;;;3.90;99.90;;;;;;5073040;28;20191;-67
2021/01/14 01:35:52;;;;;;;1999.90;999.90;;;3.90;99.90;;;;;;5073076;28;20802;-66
2021/01/14 01:38:18;;;;;;;1999.90;999.90;;;4.00;99.90;;;;;;5072688;28;20175;-66
2021/01/14 01:40:44;;;;;;;1999.90;999.90;;;4.00;99.90;;;;;;5072685;28;20187;-65
2021/01/14 01:43:10;;;;;;;1999.90;999.90;;;4.10;99.90;;;;;;5072872;28;20171;-65
2021/01/14 01:45:35;;;;;;;1999.90;999.90;;;4.20;99.90;;;;;;5072714;28;20816;-66
2021/01/14 01:48:01;;;;;;;1999.90;999.90;;;4.20;99.90;;;;;;5072823;28;20186;-66
2021/01/14 01:50:27;;;;;;;1999.90;999.90;;;4.20;99.90;;;;;;5072465;28;20649;-66
2021/01/14 01:52:54;;;;;;;1999.90;999.90;;;4.10;99.90;;;;;;5072662;28;20551;-66
2021/01/14 01:55:21;;;;;;;1999.90;999.90;;;4.10;99.90;;;;;;5072572;28;20405;-66
2021/01/14 01:57:48;;;;;;;1999.90;999.90;;;4.10;99.90;;;;;;5072469;28;20179;-66
2021/01/14 02:00:14;;;;;;;1999.90;999.90;;;4.00;99.90;;;;;;5072298;28;20193;-66
2021/01/14 02:02:41;;;;;;;1999.90;999.90;;;4.00;99.90;;;;;;5072214;28;20219;-66
2021/01/14 02:05:08;;;;;;;1999.90;999.90;;;4.00;99.90;;;;;;5072385;28;20222;-66
2021/01/14 02:07:36;;;;;;;1999.90;999.90;;;4.00;99.90;;;;;;5072299;28;20666;-65
2021/01/14 02:10:36;;;;;;;1999.90;999.90;;;4.00;99.90;;;;;;5072060;28;20163;-65
2021/01/14 02:13:05;;;;;;;1999.90;999.90;;;3.90;99.90;;;;;;5031553;28;20175;-64
2021/01/14 02:15:32;;;;;;;1999.90;999.90;;;3.90;99.90;;;;;;5073349;28;20748;-66
2021/01/14 02:17:58;;;;;;;1999.90;999.90;;;3.90;99.90;;;;;;5072250;28;20175;-65
2021/01/14 02:20:25;;;;;;;1999.90;999.90;;;3.90;99.90;;;;;;5071665;28;20179;-65
2021/01/14 02:22:57;;;;;;;1999.90;999.90;;;3.80;99.90;;;;;;5072000;28;20571;-66
2021/01/14 02:25:27;;;;;;;1999.90;999.90;;;3.90;99.90;;;;;;5071944;28;20191;-66
2021/01/14 02:27:54;;;;;;;1999.90;999.90;;;3.80;99.90;;;;;;5071936;28;20163;-66
2021/01/14 02:30:22;;;;;;;1999.90;999.90;;;3.80;99.90;;;;;;5072294;28;20194;-65
2021/01/14 02:32:47;;;;;;;1999.90;999.90;;;3.80;99.90;;;;;;5072900;28;20167;-65
2021/01/14 02:35:13;;;;;;;1999.90;999.90;;;3.80;99.90;;;;;;5073076;28;20741;-65
2021/01/14 02:37:39;;;;;;;1999.90;999.90;;;3.80;99.90;;;;;;5073160;28;20175;-65
2021/01/14 02:40:05;;;;;;;1999.90;999.90;;;3.80;99.90;;;;;;5072318;28;20210;-66
2021/01/14 02:42:31;;;;;;;1999.90;999.90;;;3.80;99.90;;;;;;5071929;28;20632;-65
2021/01/14 02:44:57;;;;;;;1999.90;999.90;;;3.80;99.90;;;;;;5072058;28;20269;-66
2021/01/14 02:47:23;;;;;;;1999.90;999.90;;;3.70;99.90;;;;;;5071492;28;20651;-66
2021/01/14 02:50:00;;;;;;;1999.90;999.90;;;3.70;99.90;;;;;;5071202;28;20171;-66
2021/01/14 02:52:28;;;;;;;1999.90;999.90;;;3.70;99.90;;;;;;5071463;28;20186;-66
2021/01/14 02:54:57;;;;;;;1999.90;999.90;;;3.70;99.90;;;;;;5071525;28;20240;-66
2021/01/14 02:57:26;;;;;;;1999.90;999.90;;;3.70;99.90;;;;;;5071000;28;20250;-65
2021/01/14 02:59:53;;;;;;;1999.90;999.90;;;3.60;99.90;;;;;;5070983;28;20644;-65
2021/01/14 03:02:19;;;;;;;1999.90;999.90;;;3.60;99.90;;;;;;5071415;28;20195;-65
2021/01/14 03:04:45;;;;;;;1999.90;999.90;;;3.60;99.90;;;;;;5071297;28;20205;-65
2021/01/14 03:07:11;;;;;;;1999.90;999.90;;;3.50;99.90;;;;;;5071228;28;20799;-66
2021/01/14 03:09:36;;;;;;;1999.90;999.90;;;3.50;99.90;;;;;;5072006;28;20167;-65
2021/01/14 03:12:02;;;;;;;1999.90;999.90;;;3.50;99.90;;;;;;5071520;28;20218;-65
2021/01/14 03:14:28;;;;;;;1999.90;999.90;;;3.50;99.90;;;;;;5071266;28;20213;-67
2021/01/14 03:16:53;;;;;;;1999.90;999.90;;;3.50;99.90;;;;;;5071224;28;20171;-66
2021/01/14 03:19:19;;;;;;;1999.90;999.90;;;3.60;99.90;;;;;;5070990;28;20895;-66
2021/01/14 03:21:45;;;;;;;1999.90;999.90;;;3.50;99.90;;;;;;5071050;28;20198;-65
2021/01/14 03:24:10;;;;;;;1999.90;999.90;;;3.60;99.90;;;;;;5071160;28;20171;-65
2021/01/14 03:26:37;;;;;;;1999.90;999.90;;;3.60;99.90;;;;;;5070940;28;20199;-66
2021/01/14 03:29:03;;;;;;;1999.90;999.90;;;3.50;99.90;;;;;;5070663;28;20163;-66
2021/01/14 03:31:28;;;;;;;1999.90;999.90;;;3.50;99.90;;;;;;5071077;28;20532;-65
2021/01/14 03:33:54;;;;;;;1999.90;999.90;;;3.50;99.90;;;;;;5071279;28;20246;-65
2021/01/14 03:36:20;;;;;;;1999.90;999.90;;;3.60;99.90;;;;;;5071321;28;20630;-65
2021/01/14 03:38:46;;;;;;;1999.90;999.90;;;3.60;99.90;;;;;;5070616;28;20171;-66
2021/01/14 03:41:17;;;;;;;1999.90;999.90;;;3.50;99.90;;;;;;5070613;28;20683;-66
2021/01/14 03:43:43;;;;;;;1999.90;999.90;;;3.50;99.90;;;;;;5070805;28;20183;-66
2021/01/14 03:46:15;;;;;;;1999.90;999.90;;;3.60;99.90;;;;;;5070835;28;20198;-65
2021/01/14 03:48:42;;;;;;;1999.90;999.90;;;3.60;99.90;;;;;;5070539;28;20539;-65
2021/01/14 03:51:17;;;;;;;1999.90;999.90;;;3.60;99.90;;;;;;5070667;28;20183;-65
2021/01/14 03:53:43;;;;;;;1999.90;999.90;;;3.60;99.90;;;;;;5070721;28;20169;-65
2021/01/14 03:56:09;;;;;;;1999.90;999.90;;;3.50;99.90;;;;;;5070651;28;20664;-65
2021/01/14 03:58:35;;;;;;;1999.90;999.90;;;3.50;99.90;;;;;;5071342;28;20179;-65
2021/01/14 04:01:01;;;;;;;1999.90;999.90;;;3.50;99.90;;;;;;5071955;28;20278;-66
2021/01/14 04:03:27;;;;;;;1999.90;999.90;;;3.50;99.90;;;;;;5072180;28;20178;-65
2021/01/14 04:05:52;;;;;;;1999.90;999.90;;;3.50;99.90;;;;;;5071365;28;20579;-65
2021/01/14 04:08:18;;;;;;;1999.90;999.90;;;3.60;99.90;;;;;;5070331;28;20163;-66
2021/01/14 04:10:43;;;;;;;1999.90;999.90;;;3.70;99.90;;;;;;5073721;28;20179;-65
2021/01/14 04:13:09;;;;;;;1999.90;999.90;;;3.70;99.90;;;;;;5074515;28;20166;-65
2021/01/14 04:15:35;;;;;;;1999.90;999.90;;;3.70;99.90;;;;;;5075112;28;20668;-65
2021/01/14 04:18:00;;;;;;;1999.90;999.90;;;3.70;99.90;;;;;;5074624;28;20171;-66
2021/01/14 04:20:26;;;;;;;1999.90;999.90;;;3.70;99.90;;;;;;5074184;28;20216;-65
2021/01/14 04:22:51;;;;;;;1999.90;999.90;;;3.60;99.90;;;;;;5074518;28;20189;-65
2021/01/14 04:25:17;;;;;;;1999.90;999.90;;;3.60;99.90;;;;;;5074210;28;20198;-65
2021/01/14 04:27:43;;;;;;;1999.90;999.90;;;3.70;99.90;;;;;;5074264;28;20170;-66
2021/01/14 04:30:09;;;;;;;1999.90;999.90;;;3.60;99.90;;;;;;5073888;28;20167;-65
2021/01/14 04:32:34;;;;;;;1999.90;999.90;;;3.50;99.90;;;;;;5074070;28;20186;-65
2021/01/14 04:35:00;;;;;;;1999.90;999.90;;;3.40;99.90;;;;;;5074065;28;20185;-66
2021/01/14 04:37:26;;;;;;;1999.90;999.90;;;3.40;99.90;;;;;;5074161;28;20197;-66
2021/01/14 04:39:51;;;;;;;1999.90;999.90;;;3.40;99.90;;;;;;5073781;28;20664;-65
2021/01/14 04:42:20;;;;;;;1999.90;999.90;;;3.50;99.90;;;;;;5074704;28;20505;-66
2021/01/14 04:44:45;;;;;;;1999.90;999.90;;;3.40;99.90;;;;;;5074450;28;20252;-66
2021/01/14 04:47:15;;;;;;;1999.90;999.90;;;3.50;99.90;;;;;;5074543;28;20163;-65
2021/01/14 04:49:42;;;;;;;1999.90;999.90;;;3.50;99.90;;;;;;5074037;28;20171;-65
2021/01/14 04:52:16;;;;;;;1999.90;999.90;;;3.40;99.90;;;;;;5073811;28;20190;-65
2021/01/14 04:54:43;;;;;;;1999.90;999.90;;;3.40;99.90;;;;;;5073831;28;20185;-65
2021/01/14 04:57:20;;;;;;;1999.90;999.90;;;3.40;99.90;;;;;;5073917;28;20593;-65
2021/01/14 04:59:53;;;;;;;1999.90;999.90;;;3.30;99.90;;;;;;5073485;28;20175;-65
2021/01/14 05:02:23;;;;;;;1999.90;999.90;;;3.20;99.90;;;;;;5073652;28;20229;-65
2021/01/14 05:04:53;;;;;;;1999.90;999.90;;;3.20;99.90;;;;;;5074165;28;20248;-66
2021/01/14 05:07:45;;;;;;;1999.90;999.90;;;3.20;99.90;;;;;;5074576;28;20171;-65
2021/01/14 05:10:19;;;;;;;1999.90;999.90;;;3.30;99.90;;;;;;5073967;28;20178;-65
2021/01/14 05:12:44;;;;;;;1999.90;999.90;;;3.40;99.90;;;;;;5074098;28;20187;-65
2021/01/14 05:15:15;;;;;;;1999.90;999.90;;;3.30;99.90;;;;;;5073297;28;20177;-67
2021/01/14 05:17:41;;;;;;;1999.90;999.90;;;3.40;99.90;;;;;;5073336;28;20656;-66
2021/01/14 05:20:07;;;;;;;1999.90;999.90;;;3.50;99.90;;;;;;5072665;28;20186;-66
2021/01/14 05:22:36;;;;;;;1999.90;999.90;;;3.60;99.90;;;;;;5073130;28;20468;-65
2021/01/14 05:25:09;;;;;;;1999.90;999.90;;;3.50;99.90;;;;;;5073065;28;20191;-65
2021/01/14 05:27:36;;;;;;;1999.90;999.90;;;3.60;99.90;;;;;;5073077;28;20714;-65
2021/01/14 05:30:08;;;;;;;1999.90;999.90;;;3.60;99.90;;;;;;5072822;28;20175;-65
2021/01/14 05:32:39;;;;;;;1999.90;999.90;;;3.70;99.90;;;;;;5072989;28;20727;-65
2021/01/14 05:35:07;;;;;;;1999.90;999.90;;;3.60;99.90;;;;;;5073050;28;20576;-65
2021/01/14 05:37:43;;;;;;;1999.90;999.90;;;3.60;99.90;;;;;;5073196;28;20179;-65
2021/01/14 05:40:12;;;;;;;1999.90;999.90;;;3.70;99.90;;;;;;5072795;28;20672;-64
2021/01/14 05:42:38;;;;;;;1999.90;999.90;;;3.60;99.90;;;;;;5072583;28;20261;-65
2021/01/14 05:45:06;;;;;;;1999.90;999.90;;;3.60;99.90;;;;;;5072900;28;20206;-65
2021/01/14 05:47:32;;;;;;;1999.90;999.90;;;3.60;99.90;;;;;;5072740;28;20246;-66
2021/01/14 05:50:03;;;;;;;1999.90;999.90;;;3.60;99.90;;;;;;5072555;28;20175;-65
2021/01/14 05:52:30;;;;;;;1999.90;999.90;;;3.60;99.90;;;;;;5072714;28;20195;-65
2021/01/14 05:55:00;;;;;;;1999.90;999.90;;;3.50;99.90;;;;;;5072488;28;20185;-65
2021/01/14 05:57:33;;;;;;;1999.90;999.90;;;3.60;99.90;;;;;;5072675;28;20225;-66
2021/01/14 06:00:07;;;;;;;1999.90;999.90;;;3.60;99.90;;;;;;5072311;28;20171;-65
2021/01/14 06:02:33;;;;;;;1999.90;999.90;;;3.40;99.90;;;;;;5072996;28;20183;-65
2021/01/14 06:04:59;;;;;;;1999.90;999.90;;;3.40;99.90;;;;;;5073148;28;20668;-65
2021/01/14 06:07:38;;;;;;;1999.90;999.90;;;3.40;99.90;;;;;;5073321;28;20425;-65
2021/01/14 06:10:05;;;;;;;1999.90;999.90;;;3.30;99.90;;;;;;5073028;28;20175;-65
2021/01/14 06:12:30;;;;;;;1999.90;999.90;;;3.30;99.90;;;;;;5072320;28;20211;-66
2021/01/14 06:14:56;;;;;;;1999.90;999.90;;;3.40;99.90;;;;;;5072514;28;20648;-65
2021/01/14 06:17:32;;;;;;;1999.90;999.90;;;3.40;99.90;;;;;;5073122;28;20440;-65
2021/01/14 06:20:09;;;;;;;1999.90;999.90;;;3.30;99.90;;;;;;5072288;28;20181;-65
2021/01/14 06:22:36;;;;;;;1999.90;999.90;;;3.40;99.90;;;;;;5071831;28;20209;-66
2021/01/14 06:25:04;;;;;;;1999.90;999.90;;;3.40;99.90;;;;;;5072346;28;20218;-66
2021/01/14 06:27:33;;;;;;;1999.90;999.90;;;3.40;99.90;;;;;;5071997;28;20202;-66
2021/01/14 06:30:17;;;;;;;1999.90;999.90;;;3.30;99.90;;;;;;5071825;28;20167;-65
2021/01/14 06:32:46;;;;;;;1999.90;999.90;;;3.20;99.90;;;;;;5071095;28;20183;-65
2021/01/14 06:35:12;;;;;;;1999.90;999.90;;;3.10;99.90;;;;;;5071798;28;20174;-65
2021/01/14 06:37:38;;;;;;;1999.90;999.90;;;3.00;99.90;;;;;;5072499;28;20220;-64
2021/01/14 06:40:06;;;;;;;1999.90;999.90;;;2.90;99.90;;;;;;5072674;28;20174;-65
2021/01/14 06:42:35;;;;;;;1999.90;999.90;;;2.90;99.90;;;;;;5072425;28;20202;-65
2021/01/14 06:45:04;;;;;;;1999.90;999.90;;;2.80;99.90;;;;;;5071568;28;20194;-65
2021/01/14 06:47:39;;;;;;;1999.90;999.90;;;2.80;99.90;;;;;;5071849;28;20170;-65
2021/01/14 06:50:19;;;;;;;1999.90;999.90;;;2.90;99.90;;;;;;5072330;28;20169;-65
2021/01/14 06:53:00;;;;;;;1999.90;999.90;;;2.90;99.90;;;;;;5071623;28;20228;-66
2021/01/14 06:55:28;;;;;;;1999.90;999.90;;;3.00;99.90;;;;;;5071426;28;20201;-65
2021/01/14 06:58:03;;;;;;;1999.90;999.90;;;3.00;99.90;;;;;;5071553;28;20183;-65
2021/01/14 07:00:30;;;;;;;1999.90;999.90;;;3.10;99.90;;;;;;5071249;28;20162;-65
2021/01/14 07:03:23;;;;;;;1999.90;999.90;;;3.20;99.90;;;;;;5071864;28;20182;-65
2021/01/14 07:05:52;;;;;;;1999.90;999.90;;;3.20;99.90;;;;;;5060228;28;20570;-66
2021/01/14 07:08:38;;;;;;;1999.90;999.90;;;3.20;99.90;;;;;;5071238;28;20163;-65
2021/01/14 07:11:09;;;;;;;1999.90;999.90;;;3.20;99.90;;;;;;5071196;28;20191;-66
2021/01/14 07:13:49;;;;;;;1999.90;999.90;;;3.30;99.90;;;;;;5071213;28;20194;-66
2021/01/14 07:16:22;;;;;;;1999.90;999.90;;;3.20;99.90;;;;;;5071185;28;20840;-65
2021/01/14 07:18:49;;;;;;;1999.90;999.90;;;3.30;99.90;;;;;;5070849;28;20713;-65
2021/01/14 07:21:34;;;;;;;1999.90;999.90;;;3.30;99.90;;;;;;5071015;28;20251;-65
2021/01/14 07:24:19;;;;;;;1999.90;999.90;;;3.20;99.90;;;;;;5071157;28;20179;-66
2021/01/14 07:26:55;;;;;;;1999.90;999.90;;;3.20;99.90;;;;;;5070808;28;20206;-66
2021/01/14 07:29:21;;;;;;;1999.90;999.90;;;3.20;99.90;;;;;;5070656;28;20166;-65
2021/01/14 07:31:54;;;;;;;1999.90;999.90;;;3.30;99.90;;;;;;5071033;28;20222;-65
2021/01/14 07:34:32;;;;;;;1999.90;999.90;;;3.30;99.90;;;;;;5070883;28;20202;-65
2021/01/14 07:36:58;;;;;;;1999.90;999.90;;;3.30;99.90;;;;;;5071116;28;20242;-65
2021/01/14 07:39:48;;;;;;;1999.90;999.90;;;3.30;99.90;;;;;;5070701;28;20268;-65
2021/01/14 07:42:33;;;;;;;1999.90;999.90;;;3.30;99.90;;;;;;5070604;28;20210;-66
2021/01/14 07:45:13;;;;;;;1999.90;999.90;;;3.30;99.90;;;;;;5070660;28;20831;-65
2021/01/14 07:47:39;;;;;;;1999.90;999.90;;;3.40;99.90;;;;;;5070717;28;20634;-65
2021/01/14 07:50:27;;;;;;;1999.90;999.90;;;3.30;99.90;;;;;;5070529;28;20166;-65
2021/01/14 07:52:54;;;;;;;1999.90;999.90;;;3.40;99.90;;;;;;5070950;28;20547;-65
2021/01/14 07:55:31;;;;;;;1999.90;999.90;;;3.40;99.90;;;;;;5070719;28;20171;-65
2021/01/14 07:58:26;;;;;;;1999.90;999.90;;;3.40;99.90;;;;;;5070651;28;20170;-65
2021/01/14 08:01:10;;;;;;;1999.90;999.90;;;3.30;99.90;;;;;;5049361;28;20682;-66
2021/01/14 08:03:37;;;;;;;1999.90;999.90;;;3.30;99.90;;;;;;5070746;28;20167;-65
2021/01/14 08:06:27;;;;;;;1999.90;999.90;;;3.30;99.90;;;;;;5070514;28;20195;-65
2021/01/14 08:09:09;;;;;;;1999.90;999.90;;;3.40;99.90;;;;;;5070756;28;20198;-66
2021/01/14 08:11:58;;;;;;;1999.90;999.90;;;3.40;99.90;;;;;;5070792;28;20261;-65
2021/01/14 08:14:38;;;;;;;1999.90;999.90;;;3.40;99.90;;;;;;5057568;28;20714;-65
2021/01/14 08:17:27;;;;;;;1999.90;999.90;;;3.50;99.90;;;;;;5070760;28;20202;-66
2021/01/14 08:19:54;;;;;;;1999.90;999.90;;;3.50;99.90;;;;;;5070350;28;20167;-65
2021/01/14 08:22:20;;;;;;;1999.90;999.90;;;3.50;99.90;;;;;;5070474;28;20187;-65
2021/01/14 08:24:55;;;;;;;1999.90;999.90;;;3.50;99.90;;;;;;5070360;28;20246;-65
2021/01/14 08:27:21;;;;;;;1999.90;999.90;;;3.40;99.90;;;;;;5070608;28;20397;-65
2021/01/14 08:29:57;;;;;;;1999.90;999.90;;;3.40;99.90;;;;;;5070184;28;20534;-65
2021/01/14 08:32:45;;;;;;;1999.90;999.90;;;3.40;99.90;;;;;;5070347;28;20183;-66
2021/01/14 08:35:22;;;;;;;1999.90;999.90;;;3.40;99.90;;;;;;5070399;28;20209;-66
2021/01/14 08:37:54;;;;;;;1999.90;999.90;;;3.50;99.90;;;;;;5070598;28;20348;-66
2021/01/14 08:40:22;;;;;;;1999.90;999.90;;;3.50;99.90;;;;;;5069995;28;20193;-66
2021/01/14 08:42:58;;;;;;;1999.90;999.90;;;3.40;99.90;;;;;;5070191;28;20187;-65
2021/01/14 08:45:27;;;;;;;1999.90;999.90;;;3.50;99.90;;;;;;5070256;28;20195;-65
2021/01/14 08:47:59;;;;;;;1999.90;999.90;;;3.50;99.90;;;;;;5070109;28;20190;-66
2021/01/14 08:50:49;;;;;;;1999.90;999.90;;;3.60;99.90;;;;;;5070098;28;20575;-66
2021/01/14 08:53:17;;;;;;;1999.90;999.90;;;3.60;99.90;;;;;;5070276;28;20171;-65
2021/01/14 08:55:43;;;;;;;1999.90;999.90;;;3.60;99.90;;;;;;5071483;28;20167;-65
2021/01/14 08:58:09;;;;;;;1999.90;999.90;;;3.70;99.90;;;;;;5073477;28;20641;-66
2021/01/14 09:00:39;;;;;;;1999.90;999.90;;;3.70;99.90;;;;;;5073405;28;20178;-66
2021/01/14 09:03:05;;;;;;;1999.90;999.90;;;3.80;99.90;;;;;;5073647;28;20173;-65
2021/01/14 09:05:31;;;;;;;1999.90;999.90;;;3.80;99.90;;;;;;5073606;28;20195;-65
2021/01/14 09:08:12;;;;;;;1999.90;999.90;;;3.90;99.90;;;;;;5073597;28;20547;-65
2021/01/14 09:10:54;;;;;;;1999.90;999.90;;;3.80;99.90;;;;;;5073402;28;20397;-65
2021/01/14 09:13:25;;;;;;;1999.90;999.90;;;3.90;99.90;;;;;;5073483;28;20656;-65
2021/01/14 09:15:53;;;;;;;1999.90;999.90;;;3.90;99.90;;;;;;5073435;28;20179;-66
2021/01/14 09:18:29;;;;;;;1999.90;999.90;;;3.90;99.90;;;;;;5073189;28;20573;-65
2021/01/14 09:20:55;;;;;;;1999.90;999.90;;;4.00;99.90;;;;;;5072258;28;20589;-66
2021/01/14 09:23:35;;;;;;;1999.90;999.90;;;4.00;99.90;;;;;;5053028;28;20187;-65
2021/01/14 09:26:10;;;;;;;1999.90;999.90;;;4.10;99.90;;;;;;5053289;28;20203;-65
2021/01/14 09:28:35;;;;;;;1999.90;999.90;;;4.20;99.90;;;;;;5052866;28;20202;-67
2021/01/14 09:31:09;;;;;;;1999.90;999.90;;;4.20;99.90;;;;;;5053028;28;20214;-65
2021/01/14 09:33:40;;;;;;;1999.90;999.90;;;4.20;99.90;;;;;;5053028;28;20695;-65
2021/01/14 09:36:10;;;;;;;1999.90;999.90;;;4.20;99.90;;;;;;5060180;28;20232;-66
2021/01/14 09:38:40;;;;;;;1999.90;999.90;;;4.10;99.90;;;;;;5061279;28;20251;-65
2021/01/14 09:41:06;;;;;;;1999.90;999.90;;;4.20;99.90;;;;;;5059844;28;20745;-66
2021/01/14 09:43:33;;;;;;;1999.90;999.90;;;4.20;99.90;;;;;;5059637;28;20492;-65
2021/01/14 09:45:59;;;;;;;1999.90;999.90;;;4.30;99.90;;;;;;5060298;28;20183;-65
2021/01/14 09:48:25;;;;;;;1999.90;999.90;;;4.30;99.90;;;;;;5060859;28;20171;-65
2021/01/14 09:50:51;;;;;;;1999.90;999.90;;;4.20;99.90;;;;;;5071733;28;20179;-65
2021/01/14 09:53:18;;;;;;;1999.90;999.90;;;4.20;99.90;;;;;;5071679;28;20328;-65
2021/01/14 09:55:43;;;;;;;1999.90;999.90;;;4.20;99.90;;;;;;5071108;28;20409;-65
2021/01/14 09:58:21;;;;;;;1999.90;999.90;;;4.20;99.90;;;;;;5071693;28;20220;-65
2021/01/14 10:00:50;;;;;;;1999.90;999.90;;;4.20;99.90;;;;;;5071552;28;20477;-65
2021/01/14 10:03:19;;;;;;;1999.90;999.90;;;4.30;99.90;;;;;;5071175;28;20170;-65
2021/01/14 10:05:49;;;;;;;1999.90;999.90;;;4.40;99.90;;;;;;5071273;28;20440;-65
2021/01/14 10:08:21;;;;;;;1999.90;999.90;;;4.50;99.90;;;;;;5070279;28;20195;-65
2021/01/14 10:10:48;;;;;;;1999.90;999.90;;;4.40;99.90;;;;;;5070921;28;20198;-65
2021/01/14 10:13:15;;;;;;;1999.90;999.90;;;4.50;99.90;;;;;;5071444;28;20171;-65
2021/01/14 10:15:42;;;;;;;1999.90;999.90;;;4.50;99.90;;;;;;5071222;28;20640;-66
2021/01/14 10:18:20;;;;;;;1999.90;999.90;;;4.50;99.90;;;;;;5070767;28;20187;-65
2021/01/14 10:20:46;;;;;;;1999.90;999.90;;;4.60;99.90;;;;;;5066811;28;20530;-64
2021/01/14 10:23:22;;;;;;;1999.90;999.90;;;4.60;99.90;;;;;;5069310;28;20229;-64
2021/01/14 10:25:48;;;;;;;1999.90;999.90;;;4.70;99.90;;;;;;5069071;28;20580;-67
2021/01/14 10:28:13;;;;;;;1999.90;999.90;;;4.70;99.90;;;;;;5069298;28;20175;-66
2021/01/14 10:30:42;;;;;;;1999.90;999.90;;;4.70;99.90;;;;;;5069737;28;20174;-65
2021/01/14 10:33:09;;;;;;;1999.90;999.90;;;4.80;99.90;;;;;;5068766;28;20182;-65
2021/01/14 10:35:36;;;;;;;1999.90;999.90;;;4.90;99.90;;;;;;5069513;28;20474;-66
2021/01/14 10:38:06;;;;;;;1999.90;999.90;;;4.80;99.90;;;;;;5069025;28;20420;-67
2021/01/14 10:40:45;;;;;;;1999.90;999.90;;;4.80;99.90;;;;;;5069705;28;20763;-65
2021/01/14 10:43:14;;;;;;;1999.90;999.90;;;4.80;99.90;;;;;;5070122;28;20474;-65
2021/01/14 10:45:41;;;;;;;1999.90;999.90;;;4.80;99.90;;;;;;5070052;28;20472;-66
2021/01/14 10:48:15;;;;;;;1999.90;999.90;;;4.80;99.90;;;;;;5086227;28;20408;-65
2021/01/14 10:50:42;;;;;;;1999.90;999.90;;;4.80;99.90;;;;;;5090644;28;20396;-65
2021/01/14 10:53:08;;;;;;;1999.90;999.90;;;4.80;99.90;;;;;;5090380;28;20427;-66
2021/01/14 10:55:34;;;;;;;1999.90;999.90;;;4.80;99.90;;;;;;5090090;28;20419;-65
2021/01/14 10:58:02;;;;;;;1999.90;999.90;;;4.90;99.90;;;;;;5090444;28;20411;-65
2021/01/14 11:00:35;;;;;;;1999.90;999.90;;;4.90;99.90;;;;;;5090127;28;20243;-65
2021/01/14 11:03:05;;;;;;;1999.90;999.90;;;4.90;99.90;;;;;;5089955;28;20401;-65
2021/01/14 11:05:47;;;;;;;1999.90;999.90;;;5.00;99.90;;;;;;5089912;28;20535;-67
2021/01/14 11:08:21;;;;;;;1999.90;999.90;;;5.00;99.90;;;;;;5090063;28;20385;-65
2021/01/14 11:11:00;;;;;;;1999.90;999.90;;;5.00;99.90;;;;;;5090244;28;20190;-65
2021/01/14 11:13:38;;;;;;;1999.90;999.90;;;5.00;99.90;;;;;;5090599;28;20859;-66
2021/01/14 11:16:05;;;;;;;1999.90;999.90;;;5.00;99.90;;;;;;5089863;28;20944;-66
2021/01/14 11:18:34;;;;;;;1999.90;999.90;;;5.00;99.90;;;;;;5089893;28;20924;-65
2021/01/14 11:20:59;;;;;;;1999.90;999.90;;;5.00;99.90;;;;;;5090004;28;20416;-66
2021/01/14 11:23:26;;;;;;;1999.90;999.90;;;5.10;99.90;;;;;;5089729;28;20420;-65
2021/01/14 11:25:51;;;;;;;1999.90;999.90;;;5.20;99.90;;;;;;5089984;28;20603;-65
2021/01/14 11:28:17;;;;;;;1999.90;999.90;;;5.10;99.90;;;;;;5089513;28;20220;-65
2021/01/14 11:30:42;;;;;;;1999.90;999.90;;;5.20;99.90;;;;;;5089681;28;20162;-65
2021/01/14 11:33:08;;;;;;;1999.90;999.90;;;5.10;99.90;;;;;;5089904;28;20220;-66
2021/01/14 11:35:33;;;;;;;1999.90;999.90;;;5.20;99.90;;;;;;5089775;28;20241;-65
2021/01/14 11:37:59;;;;;;;1999.90;999.90;;;5.20;99.90;;;;;;5089805;28;20249;-65
2021/01/14 11:40:25;;;;;;;1999.90;999.90;;;5.20;99.90;;;;;;5089447;28;20221;-65
2021/01/14 11:42:50;;;;;;;1999.90;999.90;;;5.20;99.90;;;;;;5089451;28;20174;-65
2021/01/14 11:45:16;;;;;;;1999.90;999.90;;;5.30;99.90;;;;;;5089748;28;20190;-65
2021/01/14 11:47:42;;;;;;;1999.90;999.90;;;5.20;99.90;;;;;;5089904;28;20225;-65
2021/01/14 11:50:08;;;;;;;1999.90;999.90;;;5.10;99.90;;;;;;5089901;28;20453;-65
2021/01/14 11:52:33;;;;;;;1999.90;999.90;;;5.10;99.90;;;;;;5089661;28;20183;-65
2021/01/14 11:54:59;;;;;;;1999.90;999.90;;;5.00;99.90;;;;;;5089192;28;20525;-65
2021/01/14 11:57:30;;;;;;;1999.90;999.90;;;4.90;99.90;;;;;;5089544;28;20189;-65
2021/01/14 11:59:56;;;;;;;1999.90;999.90;;;4.90;99.90;;;;;;5089523;28;20216;-65
2021/01/14 12:02:22;;;;;;;1999.90;999.90;;;4.90;99.90;;;;;;5089063;28;20194;-66
2021/01/14 12:04:48;;;;;;;1999.90;999.90;;;4.90;99.90;;;;;;5089293;28;20407;-65
2021/01/14 12:07:14;;;;;;;1999.90;999.90;;;4.90;99.90;;;;;;5089613;28;20177;-65
2021/01/14 12:09:40;;;;;;;1999.90;999.90;;;5.00;99.90;;;;;;5088964;28;20178;-65
2021/01/14 12:12:06;;;;;;;1999.90;999.90;;;5.00;99.90;;;;;;5089762;28;20194;-65
2021/01/14 12:14:32;;;;;;;1999.90;999.90;;;5.10;99.90;;;;;;5089533;28;20408;-65
2021/01/14 12:16:57;;;;;;;1999.90;999.90;;;5.20;99.90;;;;;;5089205;28;20738;-65
2021/01/14 12:19:23;;;;;;;1999.90;999.90;;;5.10;99.90;;;;;;5089367;28;20598;-66
2021/01/14 12:22:03;;;;;;;1999.90;999.90;;;5.10;99.90;;;;;;5089684;28;20191;-65